Time;durP1;ratioP1;P1;durP2;ratioP2;P2;SDS_P1;SDS_P2;PMS_P1;PMS_P2;Temp;Humidity;BMP_temperature;BMP_pressure;BME280_temperature;BME280_humidity;BME280_pressure;Samples;Min_cycle;Max_cycle;Signal;HPM_P1;HPM_P2
2022/08/28 00:02:17;;;;;;;13.90;11.67;;;19.90;99.90;;;;;;5052105;28;20444;-66
2022/08/28 00:04:44;;;;;;;28.50;20.27;;;19.90;99.90;;;;;;5052483;28;20502;-65
2022/08/28 00:07:11;;;;;;;17.10;12.97;;;19.90;99.90;;;;;;5051736;28;20437;-66
2022/08/28 00:09:38;;;;;;;15.30;11.83;;;19.90;99.90;;;;;;5052367;28;20439;-66
2022/08/28 00:12:06;;;;;;;13.43;12.03;;;19.90;99.90;;;;;;5052017;28;20468;-66
2022/08/28 00:14:35;;;;;;;14.00;11.03;;;19.90;99.90;;;;;;5052420;28;20478;-66
2022/08/28 00:17:02;;;;;;;12.50;11.00;;;19.90;99.90;;;;;;5052288;28;20443;-65
2022/08/28 00:19:29;;;;;;;14.63;10.13;;;19.90;99.90;;;;;;5052375;28;20509;-66
2022/08/28 00:21:57;;;;;;;14.03;12.30;;;19.90;99.90;;;;;;5049669;28;20444;-65
2022/08/28 00:24:26;;;;;;;13.30;11.30;;;19.90;99.90;;;;;;5052457;28;20444;-66
2022/08/28 00:29:42;;;;;;;13.80;11.63;;;19.80;99.90;;;;;;5052283;28;20494;-67
2022/08/28 00:32:09;;;;;;;13.60;12.20;;;19.80;99.90;;;;;;5051571;28;20502;-65
2022/08/28 00:34:36;;;;;;;15.10;12.30;;;19.80;99.90;;;;;;5051882;28;20529;-65
2022/08/28 00:37:03;;;;;;;14.73;12.97;;;19.70;99.90;;;;;;5053546;28;20442;-66
2022/08/28 00:39:31;;;;;;;14.50;11.63;;;19.80;99.90;;;;;;5056324;28;20447;-65
2022/08/28 00:41:58;;;;;;;17.80;13.10;;;19.80;99.90;;;;;;5055415;28;20824;-65
2022/08/28 00:44:27;;;;;;;13.37;11.23;;;19.80;99.90;;;;;;5056209;28;20444;-66
2022/08/28 00:46:58;;;;;;;15.43;12.10;;;19.80;99.90;;;;;;5055956;28;20478;-66
2022/08/28 00:49:28;;;;;;;17.60;13.03;;;19.70;99.90;;;;;;5055681;28;20444;-66
2022/08/28 00:52:14;;;;;;;17.87;14.47;;;19.70;99.90;;;;;;5055807;28;20523;-66
2022/08/28 00:54:46;;;;;;;14.90;12.40;;;19.60;99.90;;;;;;5055713;28;20466;-65
2022/08/28 00:57:18;;;;;;;14.63;12.00;;;19.60;99.90;;;;;;5055123;28;20460;-68
2022/08/28 00:59:45;;;;;;;17.50;10.60;;;19.60;99.90;;;;;;5055489;28;20456;-65
2022/08/28 01:02:14;;;;;;;12.33;10.83;;;19.60;99.90;;;;;;5055719;28;20446;-66
2022/08/28 01:04:41;;;;;;;13.20;11.77;;;19.60;99.90;;;;;;5055419;28;20446;-65
2022/08/28 01:07:13;;;;;;;14.07;11.33;;;19.50;99.90;;;;;;5055751;28;20448;-65
2022/08/28 01:09:43;;;;;;;16.33;10.47;;;19.50;99.90;;;;;;5055284;28;20466;-65
2022/08/28 01:12:17;;;;;;;13.33;11.20;;;19.50;99.90;;;;;;5055429;28;20453;-66
2022/08/28 01:14:46;;;;;;;13.03;11.47;;;19.50;99.90;;;;;;5055295;28;20818;-65
2022/08/28 01:17:17;;;;;;;13.13;11.37;;;19.50;99.90;;;;;;5055515;28;20495;-65
2022/08/28 01:19:51;;;;;;;13.90;11.03;;;19.40;99.90;;;;;;5054575;28;20440;-65
2022/08/28 01:22:24;;;;;;;15.67;11.07;;;19.40;99.90;;;;;;5055487;28;20804;-65
2022/08/28 01:24:55;;;;;;;12.43;10.97;;;19.40;99.90;;;;;;5055265;28;20945;-65
2022/08/28 01:27:24;;;;;;;12.73;10.67;;;19.50;99.90;;;;;;5054873;28;20490;-66
2022/08/28 01:29:52;;;;;;;12.43;10.50;;;19.50;99.90;;;;;;5055551;28;20526;-65
2022/08/28 01:32:32;;;;;;;16.47;12.93;;;19.50;99.90;;;;;;5055035;28;20444;-65
2022/08/28 01:35:01;;;;;;;14.20;11.93;;;19.50;99.90;;;;;;5055335;28;20470;-65
2022/08/28 01:37:29;;;;;;;22.23;19.90;;;19.50;99.90;;;;;;5054962;28;20435;-66
2022/08/28 01:39:59;;;;;;;16.40;14.70;;;19.50;99.90;;;;;;5055020;28;20527;-66
2022/08/28 01:42:27;;;;;;;32.53;29.17;;;19.50;99.90;;;;;;5054882;28;20448;-66
2022/08/28 01:44:54;;;;;;;20.17;16.00;;;19.60;99.90;;;;;;5055013;28;20850;-65
2022/08/28 01:47:22;;;;;;;15.60;13.97;;;19.60;99.90;;;;;;5039817;28;20503;-66
2022/08/28 01:49:49;;;;;;;13.83;11.03;;;19.60;99.90;;;;;;5044134;28;20444;-65
2022/08/28 01:52:16;;;;;;;12.67;11.33;;;19.60;99.90;;;;;;5050421;28;20964;-66
2022/08/28 01:54:43;;;;;;;12.60;11.23;;;19.60;99.90;;;;;;5053719;28;20441;-65
2022/08/28 01:57:12;;;;;;;12.60;11.30;;;19.60;99.90;;;;;;5054964;28;20518;-66
2022/08/28 01:59:39;;;;;;;15.33;11.20;;;19.60;99.90;;;;;;5053072;28;20512;-65
2022/08/28 02:02:09;;;;;;;14.60;9.77;;;19.50;99.90;;;;;;5054724;28;20467;-65
2022/08/28 02:04:37;;;;;;;13.70;10.57;;;19.50;99.90;;;;;;5053989;28;20562;-71
2022/08/28 02:07:04;;;;;;;12.40;10.60;;;19.50;99.90;;;;;;5054295;28;20448;-65
2022/08/28 02:09:31;;;;;;;12.73;10.57;;;19.50;99.90;;;;;;5054079;28;20440;-66
2022/08/28 02:11:58;;;;;;;13.40;10.33;;;19.50;99.90;;;;;;5054546;28;20495;-65
2022/08/28 02:14:29;;;;;;;11.53;10.33;;;19.50;99.90;;;;;;5053917;28;20513;-66
2022/08/28 02:16:56;;;;;;;12.53;10.70;;;19.50;99.90;;;;;;5054277;28;20487;-66
2022/08/28 02:19:23;;;;;;;12.73;9.13;;;19.40;99.90;;;;;;5053777;28;20494;-66
2022/08/28 02:21:51;;;;;;;11.80;10.60;;;19.40;99.90;;;;;;5054467;28;20530;-65
2022/08/28 02:24:19;;;;;;;20.50;14.23;;;19.40;99.90;;;;;;5053894;28;20943;-66
2022/08/28 02:26:46;;;;;;;15.60;14.00;;;19.30;99.90;;;;;;5054009;28;20466;-65
2022/08/28 02:29:13;;;;;;;12.37;11.07;;;19.30;99.90;;;;;;5053447;28;20441;-65
2022/08/28 02:31:42;;;;;;;10.80;9.70;;;19.30;99.90;;;;;;5053647;28;20457;-65
2022/08/28 02:34:10;;;;;;;14.97;12.73;;;19.30;99.90;;;;;;5053885;28;20525;-67
2022/08/28 02:36:41;;;;;;;13.13;11.17;;;19.20;99.90;;;;;;5053987;28;20487;-66
2022/08/28 02:39:09;;;;;;;15.23;11.33;;;19.20;99.90;;;;;;5053958;28;20930;-65
2022/08/28 02:41:36;;;;;;;12.77;11.43;;;19.30;99.90;;;;;;5053434;28;20502;-67
2022/08/28 02:44:03;;;;;;;15.63;10.07;;;19.20;99.90;;;;;;5053693;28;20472;-66
2022/08/28 02:46:32;;;;;;;13.10;10.67;;;19.20;99.90;;;;;;5051575;28;20470;-66
2022/08/28 02:49:01;;;;;;;13.23;10.80;;;19.20;99.90;;;;;;5053672;28;20452;-66
2022/08/28 02:51:32;;;;;;;25.97;20.93;;;19.20;99.90;;;;;;5053195;28;20857;-66
2022/08/28 02:53:59;;;;;;;15.00;12.90;;;19.20;99.90;;;;;;5053756;28;20532;-66
2022/08/28 02:56:26;;;;;;;14.53;12.40;;;19.20;99.90;;;;;;5053286;28;20568;-65
2022/08/28 02:58:54;;;;;;;12.53;9.80;;;19.20;99.90;;;;;;5053227;28;20462;-65
2022/08/28 03:01:21;;;;;;;11.40;10.20;;;19.20;99.90;;;;;;5053408;28;20521;-65
2022/08/28 03:03:48;;;;;;;11.93;10.67;;;19.20;99.90;;;;;;5053321;28;20444;-66
2022/08/28 03:06:17;;;;;;;12.33;11.03;;;19.30;99.90;;;;;;5053451;28;20444;-65
2022/08/28 03:08:45;;;;;;;11.03;9.37;;;19.30;99.90;;;;;;5053067;28;20455;-65
2022/08/28 03:11:12;;;;;;;17.90;12.37;;;19.30;99.90;;;;;;5053352;28;20834;-66
2022/08/28 03:13:40;;;;;;;12.20;10.53;;;19.30;99.90;;;;;;5052839;28;20443;-65
2022/08/28 03:16:08;;;;;;;12.43;10.07;;;19.30;99.90;;;;;;5053052;28;20545;-66
2022/08/28 03:18:35;;;;;;;12.90;8.70;;;19.30;99.90;;;;;;5052583;28;20442;-66
2022/08/28 03:21:02;;;;;;;10.67;9.57;;;19.30;99.90;;;;;;5053099;28;20803;-65
2022/08/28 03:23:31;;;;;;;10.23;9.00;;;19.30;99.90;;;;;;5052134;28;20774;-66
2022/08/28 03:26:01;;;;;;;12.30;10.07;;;19.30;99.90;;;;;;5052407;28;20440;-70
2022/08/28 03:28:33;;;;;;;9.83;8.63;;;19.30;99.90;;;;;;5031879;28;20476;-67
2022/08/28 03:31:01;;;;;;;10.00;8.23;;;19.20;99.90;;;;;;5033016;28;20448;-65
2022/08/28 03:33:28;;;;;;;13.50;8.80;;;19.20;99.90;;;;;;5052610;28;20464;-65
2022/08/28 03:35:56;;;;;;;10.93;8.13;;;19.20;99.90;;;;;;5052796;28;21021;-66
2022/08/28 03:38:24;;;;;;;11.70;10.50;;;19.10;99.90;;;;;;5052403;28;20438;-65
2022/08/28 03:40:53;;;;;;;13.90;10.00;;;19.10;99.90;;;;;;5052717;28;20450;-65
2022/08/28 03:43:23;;;;;;;12.00;10.80;;;19.00;99.90;;;;;;5052419;28;20442;-65
2022/08/28 03:45:56;;;;;;;10.87;9.77;;;19.10;99.90;;;;;;5052988;28;20926;-66
2022/08/28 03:48:23;;;;;;;12.73;11.53;;;19.10;99.90;;;;;;5052435;28;20545;-66
2022/08/28 03:50:52;;;;;;;19.17;16.77;;;19.10;99.90;;;;;;5052907;28;20440;-65
2022/08/28 03:53:20;;;;;;;13.43;11.77;;;19.10;99.90;;;;;;5052050;28;20447;-66
2022/08/28 03:55:47;;;;;;;44.93;40.00;;;19.10;99.90;;;;;;5052168;28;20518;-66
2022/08/28 03:58:16;;;;;;;17.60;14.77;;;19.20;99.90;;;;;;5052471;28;20980;-65
2022/08/28 04:00:43;;;;;;;13.20;11.27;;;19.20;99.90;;;;;;5052002;28;20953;-65
2022/08/28 04:03:12;;;;;;;10.63;9.53;;;19.10;99.90;;;;;;5051349;28;20497;-66
2022/08/28 04:05:40;;;;;;;13.40;11.57;;;19.10;99.90;;;;;;5052439;28;20539;-65
2022/08/28 04:08:07;;;;;;;10.50;9.40;;;19.10;99.90;;;;;;5052174;28;20862;-66
2022/08/28 04:10:35;;;;;;;13.00;10.90;;;19.10;99.90;;;;;;5052415;28;20443;-66
2022/08/28 04:13:03;;;;;;;11.33;9.90;;;19.10;99.90;;;;;;5051851;28;20581;-66
2022/08/28 04:15:31;;;;;;;11.50;10.40;;;19.10;99.90;;;;;;5032266;28;20953;-66
2022/08/28 04:17:59;;;;;;;13.10;9.27;;;19.00;99.90;;;;;;5032569;28;20445;-66
2022/08/28 04:20:26;;;;;;;12.80;10.80;;;19.00;99.90;;;;;;5051712;28;20535;-66
2022/08/28 04:22:54;;;;;;;10.53;9.43;;;19.00;99.90;;;;;;5052162;28;20448;-66
2022/08/28 04:25:22;;;;;;;11.83;10.60;;;19.00;99.90;;;;;;5052096;28;20448;-68
2022/08/28 04:27:49;;;;;;;12.67;11.37;;;19.10;99.90;;;;;;5051935;28;20895;-66
2022/08/28 04:30:17;;;;;;;10.70;9.13;;;19.10;99.90;;;;;;5052112;28;20441;-66
2022/08/28 04:32:46;;;;;;;12.17;10.47;;;19.00;99.90;;;;;;5051998;28;20504;-65
2022/08/28 04:35:14;;;;;;;13.53;10.87;;;19.10;99.90;;;;;;5052171;28;20450;-65
2022/08/28 04:37:42;;;;;;;14.77;11.00;;;19.00;99.90;;;;;;5051562;28;20486;-65
2022/08/28 04:40:11;;;;;;;13.07;11.70;;;19.00;99.90;;;;;;5052198;28;20447;-66
2022/08/28 04:42:39;;;;;;;11.70;10.50;;;19.00;99.90;;;;;;5050873;28;20442;-65
2022/08/28 04:45:07;;;;;;;11.57;9.93;;;19.00;99.90;;;;;;5052194;28;20451;-65
2022/08/28 04:47:37;;;;;;;14.73;13.20;;;19.00;99.90;;;;;;5051752;28;20471;-65
2022/08/28 04:50:07;;;;;;;10.90;9.80;;;19.10;99.90;;;;;;5032032;28;20443;-65
2022/08/28 04:52:34;;;;;;;11.70;9.70;;;19.10;99.90;;;;;;5032301;28;20857;-65
2022/08/28 04:55:02;;;;;;;13.43;10.10;;;19.10;99.90;;;;;;5032114;28;20439;-66
2022/08/28 04:57:29;;;;;;;13.43;10.83;;;19.10;99.90;;;;;;5032074;28;20486;-65
2022/08/28 04:59:57;;;;;;;10.03;9.03;;;19.10;99.90;;;;;;5051125;28;20451;-66
2022/08/28 05:02:25;;;;;;;12.50;10.20;;;19.10;99.90;;;;;;5051846;28;20659;-66
2022/08/28 05:04:52;;;;;;;12.27;10.13;;;19.10;99.90;;;;;;5051557;28;20426;-65
2022/08/28 05:07:20;;;;;;;10.90;9.70;;;19.10;99.90;;;;;;5051898;28;20517;-66
2022/08/28 05:09:48;;;;;;;12.40;11.10;;;19.10;99.90;;;;;;5051180;28;20485;-66
2022/08/28 05:12:16;;;;;;;14.87;13.23;;;19.10;99.90;;;;;;5051822;28;20485;-65
2022/08/28 05:14:44;;;;;;;16.37;13.40;;;19.10;99.90;;;;;;5050890;28;20441;-65
2022/08/28 05:17:13;;;;;;;13.37;11.10;;;19.10;99.90;;;;;;5051824;28;21027;-65
2022/08/28 05:19:42;;;;;;;13.13;10.27;;;19.20;99.90;;;;;;5051328;28;20444;-66
2022/08/28 05:22:10;;;;;;;11.30;10.07;;;19.20;99.90;;;;;;5051959;28;20842;-65
2022/08/28 05:24:39;;;;;;;12.07;9.70;;;19.20;99.90;;;;;;5053592;28;20964;-66
2022/08/28 05:27:07;;;;;;;11.90;10.00;;;19.20;99.90;;;;;;5055332;28;20454;-65
2022/08/28 05:29:34;;;;;;;11.60;10.40;;;19.20;99.90;;;;;;5054654;28;20443;-66
2022/08/28 05:32:01;;;;;;;13.97;11.73;;;19.10;99.90;;;;;;5055323;28;20500;-65
2022/08/28 05:34:28;;;;;;;12.50;9.90;;;19.10;99.90;;;;;;5054753;28;20802;-66
2022/08/28 05:36:56;;;;;;;13.20;10.70;;;19.10;99.90;;;;;;5055232;28;20559;-67
2022/08/28 05:39:23;;;;;;;11.07;9.30;;;19.20;99.90;;;;;;5054579;28;20440;-66
2022/08/28 05:41:52;;;;;;;14.03;11.13;;;19.10;99.90;;;;;;5055077;28;20444;-65
2022/08/28 05:44:19;;;;;;;11.37;10.17;;;19.20;99.90;;;;;;5050856;28;20438;-66
2022/08/28 05:46:47;;;;;;;11.20;10.00;;;19.20;99.90;;;;;;5054176;28;20549;-66
2022/08/28 05:49:16;;;;;;;13.37;10.87;;;19.30;99.90;;;;;;5053609;28;20882;-66
2022/08/28 05:51:43;;;;;;;12.57;10.00;;;19.30;99.90;;;;;;5053446;28;20434;-66
2022/08/28 05:54:11;;;;;;;11.73;9.93;;;19.40;99.90;;;;;;5054903;28;20466;-65
2022/08/28 05:56:40;;;;;;;13.20;11.10;;;19.40;99.90;;;;;;5054456;28;20476;-66
2022/08/28 05:59:11;;;;;;;16.07;10.03;;;19.50;99.90;;;;;;5054714;28;20535;-66
2022/08/28 06:01:40;;;;;;;14.70;10.70;;;19.50;99.90;;;;;;5054404;28;20441;-65
2022/08/28 06:04:10;;;;;;;13.93;11.47;;;19.40;99.90;;;;;;5054598;28;20440;-65
2022/08/28 06:06:40;;;;;;;12.83;11.13;;;19.40;99.90;;;;;;5054217;28;20455;-66
2022/08/28 06:09:09;;;;;;;11.80;10.57;;;19.40;99.90;;;;;;5054426;28;20942;-65
2022/08/28 06:11:37;;;;;;;12.43;10.30;;;19.50;99.90;;;;;;5052815;28;20440;-65
2022/08/28 06:14:08;;;;;;;14.63;11.43;;;19.50;99.90;;;;;;5054173;28;20447;-65
2022/08/28 06:16:38;;;;;;;14.53;10.50;;;19.50;99.90;;;;;;5052667;28;20479;-69
2022/08/28 06:19:09;;;;;;;14.07;11.00;;;19.60;99.90;;;;;;5034396;28;20444;-66
2022/08/28 06:21:37;;;;;;;14.23;11.40;;;19.60;99.90;;;;;;5050994;28;20475;-66
2022/08/28 06:24:05;;;;;;;16.50;10.10;;;19.60;99.90;;;;;;5054152;28;20443;-66
2022/08/28 06:26:32;;;;;;;13.63;11.60;;;19.70;99.90;;;;;;5053894;28;20444;-65
2022/08/28 06:29:01;;;;;;;13.87;11.63;;;19.70;99.90;;;;;;5054270;28;20440;-65
2022/08/28 06:31:28;;;;;;;11.03;9.67;;;19.80;99.90;;;;;;5052436;28;20519;-65
2022/08/28 06:33:59;;;;;;;15.20;11.27;;;19.90;99.90;;;;;;5053424;28;20449;-65
2022/08/28 06:36:28;;;;;;;14.00;12.47;;;19.90;99.90;;;;;;5052981;28;20880;-66
2022/08/28 06:38:56;;;;;;;11.57;10.37;;;20.00;99.90;;;;;;5053856;28;20497;-65
2022/08/28 06:41:26;;;;;;;13.20;10.80;;;20.00;99.90;;;;;;5053596;28;20955;-65
2022/08/28 06:43:53;;;;;;;13.80;10.13;;;20.10;99.90;;;;;;5053846;28;20450;-66
2022/08/28 06:46:20;;;;;;;13.50;10.53;;;20.20;99.90;;;;;;5053299;28;20547;-65
2022/08/28 06:48:48;;;;;;;14.77;10.63;;;20.20;99.90;;;;;;5053344;28;20444;-66
2022/08/28 06:51:17;;;;;;;11.47;10.00;;;20.30;99.90;;;;;;5053436;28;20476;-66
2022/08/28 06:53:45;;;;;;;11.60;9.40;;;20.30;99.90;;;;;;5053398;28;20803;-65
2022/08/28 06:56:16;;;;;;;13.27;10.50;;;20.40;99.90;;;;;;5050674;28;21041;-65
2022/08/28 06:58:44;;;;;;;14.33;10.37;;;20.50;99.90;;;;;;5051392;28;20452;-67
2022/08/28 07:01:15;;;;;;;12.80;10.40;;;20.50;99.90;;;;;;5047768;28;20520;-66
2022/08/28 07:03:43;;;;;;;9.97;8.77;;;20.60;99.90;;;;;;5050975;28;20772;-65
2022/08/28 07:06:12;;;;;;;11.23;9.43;;;20.70;99.90;;;;;;5051451;28;20441;-65
2022/08/28 07:08:42;;;;;;;8.63;7.50;;;20.80;99.90;;;;;;5051030;28;20458;-65
2022/08/28 07:11:12;;;;;;;8.80;7.93;;;20.80;99.90;;;;;;5051286;28;20447;-65
2022/08/28 07:13:39;;;;;;;10.97;8.00;;;20.70;99.90;;;;;;5051086;28;20441;-66
2022/08/28 07:16:06;;;;;;;7.13;6.43;;;20.70;99.90;;;;;;5051292;28;20496;-65
2022/08/28 07:18:33;;;;;;;8.50;6.10;;;20.70;99.90;;;;;;5050994;28;20998;-65
2022/08/28 07:21:01;;;;;;;7.57;6.23;;;20.70;99.90;;;;;;5051474;28;20433;-66
2022/08/28 07:23:28;;;;;;;6.40;4.80;;;20.70;99.90;;;;;;5050995;28;20891;-67
2022/08/28 07:25:57;;;;;;;5.73;4.63;;;20.70;99.90;;;;;;5051369;28;20503;-65
2022/08/28 07:28:24;;;;;;;4.90;3.93;;;20.70;99.90;;;;;;5051222;28;20469;-66
2022/08/28 07:30:59;;;;;;;4.23;3.40;;;20.80;99.90;;;;;;5051276;28;20927;-65
2022/08/28 07:33:28;;;;;;;5.00;3.13;;;20.80;99.90;;;;;;5047362;28;20490;-65
2022/08/28 07:35:55;;;;;;;5.10;3.63;;;20.90;99.90;;;;;;5051559;28;20448;-68
2022/08/28 07:38:23;;;;;;;6.30;3.30;;;20.90;99.90;;;;;;5050994;28;22274;-65
2022/08/28 07:40:50;;;;;;;5.00;2.70;;;20.90;99.90;;;;;;5050453;28;20437;-65
2022/08/28 07:46:06;;;;;;;4.17;2.83;;;21.00;99.90;;;;;;5049523;28;20517;-65
2022/08/28 07:48:33;;;;;;;3.30;2.50;;;21.00;99.90;;;;;;5050926;28;20460;-65
2022/08/28 07:51:01;;;;;;;3.80;2.70;;;21.10;99.90;;;;;;5047789;28;20433;-66
2022/08/28 07:53:28;;;;;;;5.13;2.73;;;21.10;99.90;;;;;;5050717;28;20484;-66
2022/08/28 07:55:55;;;;;;;4.77;3.60;;;21.10;99.90;;;;;;5051013;28;20444;-66
2022/08/28 07:58:25;;;;;;;3.57;3.07;;;21.10;99.90;;;;;;5048441;28;20476;-66
2022/08/28 08:00:53;;;;;;;4.27;3.13;;;21.20;99.90;;;;;;5050954;28;20511;-65
2022/08/28 08:03:21;;;;;;;5.20;3.40;;;21.10;99.90;;;;;;5049914;28;20445;-66
2022/08/28 08:05:52;;;;;;;5.00;3.77;;;21.10;99.90;;;;;;5050738;28;20447;-66
2022/08/28 08:08:20;;;;;;;5.80;3.40;;;21.10;99.90;;;;;;5050722;28;20772;-65
2022/08/28 08:10:57;;;;;;;5.07;4.00;;;21.10;99.90;;;;;;5049431;28;20468;-67
2022/08/28 08:13:26;;;;;;;4.27;3.53;;;21.20;99.90;;;;;;5050900;28;20444;-66
2022/08/28 08:15:53;;;;;;;4.20;3.70;;;21.20;99.90;;;;;;5050292;28;20494;-65
2022/08/28 08:18:20;;;;;;;3.77;3.03;;;21.30;99.90;;;;;;5050055;28;20487;-65
2022/08/28 08:20:48;;;;;;;3.80;3.10;;;21.40;99.90;;;;;;5050157;28;20441;-65
2022/08/28 08:23:16;;;;;;;4.10;3.67;;;21.40;99.90;;;;;;5044412;28;20450;-72
2022/08/28 08:25:54;;;;;;;4.33;3.60;;;21.50;99.90;;;;;;5050363;28;20487;-67
2022/08/28 08:28:22;;;;;;;4.53;3.30;;;21.60;99.90;;;;;;5048011;28;20931;-65
2022/08/28 08:30:50;;;;;;;5.33;3.50;;;21.60;99.90;;;;;;5050541;28;21164;-66
2022/08/28 08:33:17;;;;;;;3.43;2.70;;;21.70;99.90;;;;;;5050191;28;20433;-66
2022/08/28 08:35:44;;;;;;;4.07;3.50;;;21.60;99.90;;;;;;5047107;28;20498;-65
2022/08/28 08:38:11;;;;;;;6.50;4.00;;;21.60;99.90;;;;;;5049998;28;20484;-66
2022/08/28 08:40:38;;;;;;;3.37;2.33;;;21.60;99.90;;;;;;5051095;28;20461;-65
2022/08/28 08:43:08;;;;;;;2.87;2.10;;;21.50;99.90;;;;;;5050511;28;20441;-66
2022/08/28 08:45:38;;;;;;;3.03;1.70;;;21.50;99.90;;;;;;5049995;28;20484;-65
2022/08/28 08:48:10;;;;;;;3.20;2.20;;;21.40;99.90;;;;;;5049151;28;20465;-66
2022/08/28 08:50:44;;;;;;;2.40;1.50;;;21.30;99.90;;;;;;5049665;28;20444;-71
2022/08/28 08:53:23;;;;;;;3.10;2.10;;;21.10;99.90;;;;;;5048039;28;20475;-65
2022/08/28 08:55:52;;;;;;;3.37;2.77;;;20.90;99.90;;;;;;5046317;28;20437;-65
2022/08/28 08:58:24;;;;;;;3.13;2.10;;;20.90;99.90;;;;;;5052417;28;20503;-65
2022/08/28 09:01:04;;;;;;;3.10;2.30;;;20.90;99.90;;;;;;5054195;28;20540;-65
2022/08/28 09:03:46;;;;;;;3.60;2.43;;;20.80;99.90;;;;;;5052234;28;20467;-66
2022/08/28 09:06:21;;;;;;;2.80;2.07;;;20.70;99.90;;;;;;5050345;28;20491;-65
2022/08/28 09:08:52;;;;;;;3.00;2.17;;;20.60;99.90;;;;;;5054152;28;20436;-65
2022/08/28 09:11:37;;;;;;;3.37;1.70;;;20.70;99.90;;;;;;5054502;28;20445;-66
2022/08/28 09:14:11;;;;;;;3.03;2.27;;;20.40;99.90;;;;;;5052364;28;20539;-67
2022/08/28 09:16:41;;;;;;;4.60;3.40;;;20.30;99.90;;;;;;5054072;28;20478;-70
2022/08/28 09:19:14;;;;;;;4.93;3.70;;;20.20;99.90;;;;;;5053848;28;20891;-65
2022/08/28 09:21:45;;;;;;;5.23;4.60;;;20.20;99.90;;;;;;5053651;28;20439;-65
2022/08/28 09:24:19;;;;;;;6.23;5.10;;;20.20;99.90;;;;;;5053743;28;20575;-67
2022/08/28 09:26:53;;;;;;;4.60;4.10;;;20.20;99.90;;;;;;5052865;28;20436;-68
2022/08/28 09:29:26;;;;;;;6.40;5.37;;;20.30;99.90;;;;;;5051008;28;20520;-65
2022/08/28 09:31:54;;;;;;;6.97;5.47;;;20.30;99.90;;;;;;5053766;28;20531;-66
2022/08/28 09:34:28;;;;;;;5.30;4.67;;;20.30;99.90;;;;;;5053359;28;20520;-65
2022/08/28 09:36:58;;;;;;;7.70;5.57;;;20.40;99.90;;;;;;5044766;28;20468;-66
2022/08/28 09:39:31;;;;;;;5.93;4.63;;;20.40;99.90;;;;;;5047111;28;20752;-67
2022/08/28 09:45:05;;;;;;;5.20;4.70;;;20.40;99.90;;;;;;5046137;28;20443;-65
2022/08/28 09:47:42;;;;;;;6.33;5.23;;;20.40;99.90;;;;;;5050977;28;20563;-66
2022/08/28 09:50:23;;;;;;;5.53;4.97;;;20.40;99.90;;;;;;5046229;28;20540;-67
2022/08/28 09:52:51;;;;;;;5.90;5.17;;;20.30;99.90;;;;;;5045468;28;20471;-69
2022/08/28 09:55:27;;;;;;;4.40;4.00;;;20.30;99.90;;;;;;5003062;28;20468;-72
2022/08/28 09:57:55;;;;;;;5.50;2.97;;;20.30;99.90;;;;;;5045362;28;20536;-66
2022/08/28 10:00:23;;;;;;;3.07;2.07;;;20.30;99.90;;;;;;5050540;28;20443;-65
2022/08/28 10:02:58;;;;;;;4.77;2.53;;;20.20;99.90;;;;;;5049256;28;20824;-65
2022/08/28 10:05:40;;;;;;;3.67;3.00;;;20.20;99.90;;;;;;5050341;28;20444;-66
2022/08/28 10:08:22;;;;;;;4.30;3.20;;;20.20;99.90;;;;;;5051726;28;20930;-66
2022/08/28 10:10:55;;;;;;;5.10;4.20;;;20.20;99.90;;;;;;5057483;28;21386;-65
2022/08/28 10:13:30;;;;;;;5.73;3.83;;;20.20;99.90;;;;;;5055898;28;20443;-68
2022/08/28 10:16:18;;;;;;;6.40;4.40;;;20.20;99.90;;;;;;5056431;28;20501;-66
2022/08/28 10:18:56;;;;;;;7.50;4.50;;;20.10;99.90;;;;;;5049222;28;20496;-66
2022/08/28 10:21:33;;;;;;;6.80;4.20;;;20.10;99.90;;;;;;5055385;28;20467;-65
2022/08/28 10:24:27;;;;;;;4.47;3.80;;;20.10;99.90;;;;;;5053156;28;20440;-67
2022/08/28 10:27:05;;;;;;;8.60;4.23;;;20.10;99.90;;;;;;5056319;28;20432;-70
2022/08/28 10:29:42;;;;;;;6.03;4.23;;;20.10;99.90;;;;;;5035374;28;21015;-66
2022/08/28 10:32:22;;;;;;;5.60;4.40;;;20.10;99.90;;;;;;5036959;28;20467;-66
2022/08/28 10:34:59;;;;;;;5.37;4.30;;;20.20;99.90;;;;;;5046024;28;20850;-65
2022/08/28 10:37:41;;;;;;;7.40;4.50;;;20.30;99.90;;;;;;5030480;28;20521;-66
2022/08/28 10:40:17;;;;;;;6.40;4.07;;;20.30;99.90;;;;;;5027839;28;20492;-65
2022/08/28 10:42:50;;;;;;;7.40;5.93;;;20.30;99.90;;;;;;5028876;28;20527;-66
2022/08/28 10:45:24;;;;;;;6.00;4.70;;;20.40;99.90;;;;;;5030256;28;20428;-66
2022/08/28 10:47:55;;;;;;;5.20;4.70;;;20.40;99.90;;;;;;5029995;28;20478;-66
2022/08/28 10:50:25;;;;;;;7.10;5.47;;;20.40;99.90;;;;;;5029366;28;20531;-67
2022/08/28 10:53:01;;;;;;;6.60;5.07;;;20.40;99.90;;;;;;5029215;28;20510;-66
2022/08/28 10:55:35;;;;;;;6.97;5.70;;;20.50;99.90;;;;;;5029073;28;20480;-66
2022/08/28 10:58:05;;;;;;;8.23;5.50;;;20.60;99.90;;;;;;5029447;28;20986;-66
2022/08/28 11:00:34;;;;;;;7.10;6.40;;;20.60;99.90;;;;;;5026952;28;20448;-65
2022/08/28 11:03:06;;;;;;;8.37;5.00;;;20.60;99.90;;;;;;5029559;28;20790;-66
2022/08/28 11:05:39;;;;;;;7.77;5.10;;;20.70;99.90;;;;;;5028981;28;20496;-65
2022/08/28 11:08:20;;;;;;;6.77;5.07;;;20.70;99.90;;;;;;5028814;28;20445;-66
2022/08/28 11:10:50;;;;;;;5.90;5.13;;;20.70;99.90;;;;;;5028473;28;20520;-71
2022/08/28 11:13:54;;;;;;;7.70;5.30;;;20.70;99.90;;;;;;4999310;28;20917;-71
2022/08/28 11:16:39;;;;;;;5.90;4.80;;;20.80;99.90;;;;;;4961328;28;20509;-66
2022/08/28 11:19:25;;;;;;;6.80;5.40;;;20.80;99.90;;;;;;5025390;28;20524;-65
2022/08/28 11:21:57;;;;;;;7.13;4.67;;;20.90;99.90;;;;;;5027585;28;20477;-65
2022/08/28 11:24:42;;;;;;;7.80;4.73;;;20.90;99.90;;;;;;5026035;28;20438;-66
2022/08/28 11:27:28;;;;;;;6.30;5.23;;;20.90;99.90;;;;;;5028033;28;20442;-66
2022/08/28 11:30:28;;;;;;;6.33;5.70;;;20.90;99.90;;;;;;5028481;28;20441;-65
2022/08/28 11:33:06;;;;;;;6.73;5.20;;;21.10;99.90;;;;;;5029089;28;20469;-66
2022/08/28 11:35:50;;;;;;;7.10;5.27;;;21.10;99.90;;;;;;5026140;28;20437;-66
2022/08/28 11:38:56;;;;;;;6.20;5.17;;;21.20;99.90;;;;;;5027464;28;20490;-66
2022/08/28 11:41:27;;;;;;;6.87;5.93;;;21.30;99.90;;;;;;5027905;28;20441;-66
2022/08/28 11:44:28;;;;;;;6.87;4.83;;;21.50;99.90;;;;;;5028017;28;20445;-67
2022/08/28 11:47:15;;;;;;;5.10;4.00;;;21.50;99.90;;;;;;5028885;28;20823;-66
2022/08/28 11:49:45;;;;;;;7.03;5.10;;;21.70;99.90;;;;;;5028838;28;20492;-66
2022/08/28 11:52:44;;;;;;;5.83;4.83;;;21.80;99.90;;;;;;5029345;28;20441;-65
2022/08/28 11:55:23;;;;;;;6.43;4.90;;;22.00;99.90;;;;;;5028961;28;20485;-66
2022/08/28 11:58:05;;;;;;;5.53;4.80;;;22.20;99.90;;;;;;5028547;28;20442;-66
2022/08/28 12:00:49;;;;;;;9.97;5.10;;;22.40;99.90;;;;;;5025851;28;20890;-65
2022/08/28 12:03:27;;;;;;;6.30;5.00;;;22.50;99.90;;;;;;5026988;28;20450;-65
2022/08/28 12:05:56;;;;;;;6.50;5.27;;;22.50;99.90;;;;;;5028456;28;20442;-66
2022/08/28 12:08:56;;;;;;;7.10;5.33;;;22.50;99.90;;;;;;5027785;28;20438;-66
2022/08/28 12:11:56;;;;;;;8.10;4.83;;;22.50;99.90;;;;;;5027377;28;20977;-66
2022/08/28 12:15:06;;;;;;;7.87;5.30;;;22.50;99.80;;;;;;5029196;28;20442;-66
2022/08/28 12:17:52;;;;;;;7.43;5.47;;;22.50;99.90;;;;;;5028867;28;20513;-66
2022/08/28 12:20:38;;;;;;;5.40;4.90;;;22.50;99.90;;;;;;5028190;28;20433;-67
2022/08/28 12:23:35;;;;;;;7.80;5.30;;;22.50;99.90;;;;;;5027417;28;20469;-67
2022/08/28 12:26:07;;;;;;;6.73;4.67;;;22.60;99.90;;;;;;5027516;28;20533;-66
2022/08/28 12:28:43;;;;;;;6.27;5.40;;;22.70;99.90;;;;;;5026961;28;20929;-66
2022/08/28 12:34:31;;;;;;;5.17;4.27;;;22.70;99.30;;;;;;5031842;28;20433;-66
2022/08/28 12:37:00;;;;;;;6.10;4.40;;;22.60;99.10;;;;;;5031330;28;20430;-66
2022/08/28 12:39:31;;;;;;;4.67;4.00;;;22.50;99.30;;;;;;5031973;28;20538;-66
2022/08/28 12:41:58;;;;;;;5.23;4.27;;;22.50;99.60;;;;;;5032485;28;20446;-66
2022/08/28 12:44:29;;;;;;;6.10;3.83;;;22.40;99.50;;;;;;5032779;28;20447;-65
2022/08/28 12:46:57;;;;;;;5.47;4.60;;;22.40;99.60;;;;;;5031950;28;20572;-66
2022/08/28 12:49:34;;;;;;;5.77;4.60;;;22.40;99.70;;;;;;5031584;28;20445;-66
2022/08/28 12:52:11;;;;;;;4.40;3.87;;;22.50;99.60;;;;;;5031987;28;20438;-68
2022/08/28 12:54:39;;;;;;;5.40;4.53;;;22.60;99.90;;;;;;5031440;28;21613;-65
2022/08/28 12:57:09;;;;;;;6.17;4.53;;;22.70;99.90;;;;;;5032637;28;20757;-66
2022/08/28 12:59:40;;;;;;;4.77;4.27;;;22.80;99.90;;;;;;5031559;28;20562;-67
2022/08/28 13:02:12;;;;;;;5.10;4.27;;;22.90;99.90;;;;;;5025865;28;20553;-68
2022/08/28 13:04:50;;;;;;;5.23;3.77;;;23.10;99.90;;;;;;5030285;28;20453;-65
2022/08/28 13:07:26;;;;;;;5.00;4.07;;;23.20;99.30;;;;;;5031301;28;20444;-65
2022/08/28 13:09:56;;;;;;;4.90;4.17;;;23.40;99.30;;;;;;5029519;28;20449;-66